FMSD Airport Information

Runway Information
Runway 08 Length 4916 ft width 98 ft
Elevation 24 ft Threshold 0 ft Heading 53
Runway 26 Length 4916 ft Width 98 ft
Elevation 23 ft Threshold 0 ft Heading 233
Airport Frequencies
Type AFIS Name AFIS Frequency 118.7 MHZ
Airport Navaids
Type NDB Name Tolagnaro Frequency 282 KHZ
Airport Weather Information & NOTAM
ADDS - METARS form results

(1732 UTC 24 May 2018)
 
METAR text: FMSD 241700Z 06016KT 9999 FEW020 24/21 Q1018
Conditions at: FMSD (FT. DAUPHIN/TOLA, KM) observed 1700 UTC 24 May 2018
Temperature: 24.0°C (75°F)
Dewpoint: 21.0°C (70°F) [RH = 83%]
Pressure (altimeter): 30.06 inches Hg (1018.0 mb)
Winds: from the ENE (60 degrees) at 18 MPH (16 knots; 8.3 m/s)
Visibility: 6 or more miles (10+ km)
Ceiling: at least 12,000 feet AGL
Clouds: few clouds at 2000 feet AGL
Weather: no significant weather observed at this time